sensor_id;sensor_type;location;lat;lon;timestamp;pressure;altitude;pressure_sealevel;temperature
27826;BMP280;15077;49.704;9.908;2023-12-07T00:01:35;98368.66;;;7.51
27826;BMP280;15077;49.704;9.908;2023-12-07T00:04:03;98371.94;;;7.53
27826;BMP280;15077;49.704;9.908;2023-12-07T00:06:29;98371.94;;;7.53
27826;BMP280;15077;49.704;9.908;2023-12-07T00:08:55;98378.66;;;7.54
27826;BMP280;15077;49.704;9.908;2023-12-07T00:11:24;98381.97;;;7.56
27826;BMP280;15077;49.704;9.908;2023-12-07T00:13:49;98380.28;;;7.55
27826;BMP280;15077;49.704;9.908;2023-12-07T00:16:15;98379.44;;;7.56
27826;BMP280;15077;49.704;9.908;2023-12-07T00:18:41;98384.44;;;7.57
27826;BMP280;15077;49.704;9.908;2023-12-07T00:21:10;98380.19;;;7.59
27826;BMP280;15077;49.704;9.908;2023-12-07T00:23:36;98385.19;;;7.61
27826;BMP280;15077;49.704;9.908;2023-12-07T00:26:05;98384.34;;;7.62
27826;BMP280;15077;49.704;9.908;2023-12-07T00:28:31;98393.56;;;7.63
27826;BMP280;15077;49.704;9.908;2023-12-07T00:30:57;98395.19;;;7.64
27826;BMP280;15077;49.704;9.908;2023-12-07T00:33:22;98391.88;;;7.63
27826;BMP280;15077;49.704;9.908;2023-12-07T00:35:49;98386.84;;;7.62
27826;BMP280;15077;49.704;9.908;2023-12-07T00:38:14;98382.66;;;7.61
27826;BMP280;15077;49.704;9.908;2023-12-07T00:40:40;98386.94;;;7.59
27826;BMP280;15077;49.704;9.908;2023-12-07T00:43:06;98394.50;;;7.59
27826;BMP280;15077;49.704;9.908;2023-12-07T00:45:32;98389.47;;;7.59
27826;BMP280;15077;49.704;9.908;2023-12-07T00:47:58;98395.28;;;7.61
27826;BMP280;15077;49.704;9.908;2023-12-07T00:50:24;98391.91;;;7.62
27826;BMP280;15077;49.704;9.908;2023-12-07T00:52:53;98398.63;;;7.63
27826;BMP280;15077;49.704;9.908;2023-12-07T00:55:18;98400.25;;;7.64
27826;BMP280;15077;49.704;9.908;2023-12-07T00:57:45;98396.88;;;7.65
27826;BMP280;15077;49.704;9.908;2023-12-07T01:00:11;98398.53;;;7.66
27826;BMP280;15077;49.704;9.908;2023-12-07T01:02:37;98398.53;;;7.66
27826;BMP280;15077;49.704;9.908;2023-12-07T01:05:02;98401.84;;;7.68
27826;BMP280;15077;49.704;9.908;2023-12-07T01:07:28;98414.41;;;7.69
27826;BMP280;15077;49.704;9.908;2023-12-07T01:09:54;98418.59;;;7.70
27826;BMP280;15077;49.704;9.908;2023-12-07T01:12:19;98422.81;;;7.70
27826;BMP280;15077;49.704;9.908;2023-12-07T01:14:45;98426.19;;;7.70
27826;BMP280;15077;49.704;9.908;2023-12-07T01:17:11;98432.06;;;7.69
27826;BMP280;15077;49.704;9.908;2023-12-07T01:19:36;98435.41;;;7.70
27826;BMP280;15077;49.704;9.908;2023-12-07T01:22:02;98437.91;;;7.71
27826;BMP280;15077;49.704;9.908;2023-12-07T01:24:28;98434.56;;;7.71
27826;BMP280;15077;49.704;9.908;2023-12-07T01:26:54;98440.44;;;7.71
27826;BMP280;15077;49.704;9.908;2023-12-07T01:29:20;98450.47;;;7.72
27826;BMP280;15077;49.704;9.908;2023-12-07T01:31:46;98447.97;;;7.72
27826;BMP280;15077;49.704;9.908;2023-12-07T01:34:11;98450.47;;;7.72
27826;BMP280;15077;49.704;9.908;2023-12-07T01:36:37;98454.63;;;7.75
27826;BMP280;15077;49.704;9.908;2023-12-07T01:39:03;98447.06;;;7.75
27826;BMP280;15077;49.704;9.908;2023-12-07T01:41:28;98462.94;;;7.78
27826;BMP280;15077;49.704;9.908;2023-12-07T01:43:54;98452.00;;;7.79
27826;BMP280;15077;49.704;9.908;2023-12-07T01:46:20;98467.94;;;7.81
27826;BMP280;15077;49.704;9.908;2023-12-07T01:48:46;98455.28;;;7.83
27826;BMP280;15077;49.704;9.908;2023-12-07T01:51:16;98461.13;;;7.85
27826;BMP280;15077;49.704;9.908;2023-12-07T01:53:42;98459.44;;;7.85
27826;BMP280;15077;49.704;9.908;2023-12-07T01:56:09;98457.78;;;7.84
27826;BMP280;15077;49.704;9.908;2023-12-07T01:58:35;98462.84;;;7.84
27826;BMP280;15077;49.704;9.908;2023-12-07T02:01:02;98456.94;;;7.84
27826;BMP280;15077;49.704;9.908;2023-12-07T02:03:30;98461.94;;;7.85
27826;BMP280;15077;49.704;9.908;2023-12-07T02:05:57;98460.31;;;7.84
27826;BMP280;15077;49.704;9.908;2023-12-07T02:08:23;98461.94;;;7.85
27826;BMP280;15077;49.704;9.908;2023-12-07T02:10:48;98461.09;;;7.86
27826;BMP280;15077;49.704;9.908;2023-12-07T02:13:14;98463.59;;;7.88
27826;BMP280;15077;49.704;9.908;2023-12-07T02:15:40;98461.06;;;7.88
27826;BMP280;15077;49.704;9.908;2023-12-07T02:20:43;98470.25;;;7.90
27826;BMP280;15077;49.704;9.908;2023-12-07T02:23:13;98463.53;;;7.89
27826;BMP280;15077;49.704;9.908;2023-12-07T02:25:51;98464.38;;;7.90
27826;BMP280;15077;49.704;9.908;2023-12-07T02:28:17;98469.41;;;7.90
27826;BMP280;15077;49.704;9.908;2023-12-07T02:30:43;98463.53;;;7.89
27826;BMP280;15077;49.704;9.908;2023-12-07T02:33:09;98466.06;;;7.89
27826;BMP280;15077;49.704;9.908;2023-12-07T02:35:36;98469.44;;;7.88
27826;BMP280;15077;49.704;9.908;2023-12-07T02:38:03;98467.78;;;7.89
27826;BMP280;15077;49.704;9.908;2023-12-07T02:40:29;98463.53;;;7.89
27826;BMP280;15077;49.704;9.908;2023-12-07T02:42:56;98467.78;;;7.89
27826;BMP280;15077;49.704;9.908;2023-12-07T02:45:23;98462.75;;;7.87
27826;BMP280;15077;49.704;9.908;2023-12-07T02:47:48;98470.34;;;7.87
27826;BMP280;15077;49.704;9.908;2023-12-07T02:50:14;98465.28;;;7.87
27826;BMP280;15077;49.704;9.908;2023-12-07T02:52:40;98468.63;;;7.88
27826;BMP280;15077;49.704;9.908;2023-12-07T02:55:06;98463.59;;;7.88
27826;BMP280;15077;49.704;9.908;2023-12-07T02:57:32;98469.44;;;7.88
27826;BMP280;15077;49.704;9.908;2023-12-07T02:59:59;98475.38;;;7.87
27826;BMP280;15077;49.704;9.908;2023-12-07T03:02:25;98468.66;;;7.86
27826;BMP280;15077;49.704;9.908;2023-12-07T03:04:51;98463.69;;;7.83
27826;BMP280;15077;49.704;9.908;2023-12-07T03:07:17;98476.31;;;7.83
27826;BMP280;15077;49.704;9.908;2023-12-07T03:09:42;98472.19;;;7.79
27826;BMP280;15077;49.704;9.908;2023-12-07T03:12:08;98468.88;;;7.77
27826;BMP280;15077;49.704;9.908;2023-12-07T03:14:34;98468.06;;;7.75
27826;BMP280;15077;49.704;9.908;2023-12-07T03:16:59;98464.75;;;7.73
27826;BMP280;15077;49.704;9.908;2023-12-07T03:19:25;98463.09;;;7.72
27826;BMP280;15077;49.704;9.908;2023-12-07T03:21:50;98467.31;;;7.72
27826;BMP280;15077;49.704;9.908;2023-12-07T03:24:16;98462.31;;;7.71
27826;BMP280;15077;49.704;9.908;2023-12-07T03:26:42;98468.25;;;7.68
27826;BMP280;15077;49.704;9.908;2023-12-07T03:29:07;98464.06;;;7.69
27826;BMP280;15077;49.704;9.908;2023-12-07T03:31:33;98468.28;;;7.67
27826;BMP280;15077;49.704;9.908;2023-12-07T03:33:59;98469.19;;;7.66
27826;BMP280;15077;49.704;9.908;2023-12-07T03:36:26;98470.88;;;7.64
27826;BMP280;15077;49.704;9.908;2023-12-07T03:38:52;98471.78;;;7.63
27826;BMP280;15077;49.704;9.908;2023-12-07T03:41:18;98472.66;;;7.60
27826;BMP280;15077;49.704;9.908;2023-12-07T03:43:44;98474.34;;;7.60
27826;BMP280;15077;49.704;9.908;2023-12-07T03:46:10;98469.38;;;7.57
27826;BMP280;15077;49.704;9.908;2023-12-07T03:48:35;98487.03;;;7.57
27826;BMP280;15077;49.704;9.908;2023-12-07T03:51:01;98491.28;;;7.55
27826;BMP280;15077;49.704;9.908;2023-12-07T03:53:28;98484.59;;;7.54
27826;BMP280;15077;49.704;9.908;2023-12-07T03:55:53;98497.16;;;7.55
27826;BMP280;15077;49.704;9.908;2023-12-07T03:58:19;98488.75;;;7.55
27826;BMP280;15077;49.704;9.908;2023-12-07T04:00:45;98496.31;;;7.55
27826;BMP280;15077;49.704;9.908;2023-12-07T04:03:11;98496.31;;;7.55
27826;BMP280;15077;49.704;9.908;2023-12-07T04:05:36;98504.72;;;7.55
27826;BMP280;15077;49.704;9.908;2023-12-07T04:08:03;98503.84;;;7.56
27826;BMP280;15077;49.704;9.908;2023-12-07T04:10:30;98501.28;;;7.58
27826;BMP280;15077;49.704;9.908;2023-12-07T04:12:56;98502.16;;;7.58
27826;BMP280;15077;49.704;9.908;2023-12-07T04:15:21;98502.16;;;7.58
27826;BMP280;15077;49.704;9.908;2023-12-07T04:17:51;98510.53;;;7.59
27826;BMP280;15077;49.704;9.908;2023-12-07T04:20:18;98503.03;;;7.56
27826;BMP280;15077;49.704;9.908;2023-12-07T04:22:44;98503.94;;;7.52
27826;BMP280;15077;49.704;9.908;2023-12-07T04:25:10;98513.25;;;7.50
27826;BMP280;15077;49.704;9.908;2023-12-07T04:27:36;98510.03;;;7.45
27826;BMP280;15077;49.704;9.908;2023-12-07T04:30:02;98510.16;;;7.39
27826;BMP280;15077;49.704;9.908;2023-12-07T04:32:29;98515.25;;;7.34
27826;BMP280;15077;49.704;9.908;2023-12-07T04:34:55;98515.34;;;7.30
27826;BMP280;15077;49.704;9.908;2023-12-07T04:37:21;98517.09;;;7.28
27826;BMP280;15077;49.704;9.908;2023-12-07T04:39:46;98511.25;;;7.26
27826;BMP280;15077;49.704;9.908;2023-12-07T04:42:12;98512.06;;;7.28
27826;BMP280;15077;49.704;9.908;2023-12-07T04:44:38;98512.94;;;7.25
27826;BMP280;15077;49.704;9.908;2023-12-07T04:47:04;98510.44;;;7.24
27826;BMP280;15077;49.704;9.908;2023-12-07T04:49:29;98512.16;;;7.23
27826;BMP280;15077;49.704;9.908;2023-12-07T04:51:55;98509.66;;;7.22
27826;BMP280;15077;49.704;9.908;2023-12-07T04:54:21;98513.84;;;7.23
27826;BMP280;15077;49.704;9.908;2023-12-07T04:56:46;98512.19;;;7.22
27826;BMP280;15077;49.704;9.908;2023-12-07T04:59:12;98513.84;;;7.23
27826;BMP280;15077;49.704;9.908;2023-12-07T05:01:38;98512.19;;;7.22
27826;BMP280;15077;49.704;9.908;2023-12-07T05:04:04;98511.38;;;7.22
27826;BMP280;15077;49.704;9.908;2023-12-07T05:06:31;98514.72;;;7.21
27826;BMP280;15077;49.704;9.908;2023-12-07T05:08:56;98510.56;;;7.18
27826;BMP280;15077;49.704;9.908;2023-12-07T05:11:22;98518.16;;;7.17
27826;BMP280;15077;49.704;9.908;2023-12-07T05:13:48;98516.53;;;7.16
27826;BMP280;15077;49.704;9.908;2023-12-07T05:16:13;98525.75;;;7.15
27826;BMP280;15077;49.704;9.908;2023-12-07T05:18:39;98518.22;;;7.14
27826;BMP280;15077;49.704;9.908;2023-12-07T05:21:05;98520.78;;;7.12
27826;BMP280;15077;49.704;9.908;2023-12-07T05:23:31;98522.47;;;7.12
27826;BMP280;15077;49.704;9.908;2023-12-07T05:25:57;98527.56;;;7.10
27826;BMP280;15077;49.704;9.908;2023-12-07T05:28:22;98521.72;;;7.08
27826;BMP280;15077;49.704;9.908;2023-12-07T05:30:48;98527.63;;;7.07
27826;BMP280;15077;49.704;9.908;2023-12-07T05:33:15;98526.88;;;7.04
27826;BMP280;15077;49.704;9.908;2023-12-07T05:35:41;98532.75;;;7.03
27826;BMP280;15077;49.704;9.908;2023-12-07T05:38:07;98532.78;;;7.01
27826;BMP280;15077;49.704;9.908;2023-12-07T05:40:32;98526.97;;;6.98
27826;BMP280;15077;49.704;9.908;2023-12-07T05:42:59;98534.56;;;6.96
27826;BMP280;15077;49.704;9.908;2023-12-07T05:45:25;98530.41;;;6.94
27826;BMP280;15077;49.704;9.908;2023-12-07T05:47:51;98523.75;;;6.90
27826;BMP280;15077;49.704;9.908;2023-12-07T05:50:17;98528.00;;;6.88
27826;BMP280;15077;49.704;9.908;2023-12-07T05:52:43;98528.91;;;6.84
27826;BMP280;15077;49.704;9.908;2023-12-07T05:55:09;98530.72;;;6.79
27826;BMP280;15077;49.704;9.908;2023-12-07T05:57:35;98528.31;;;6.73
27826;BMP280;15077;49.704;9.908;2023-12-07T06:00:00;98526.72;;;6.68
27826;BMP280;15077;49.704;9.908;2023-12-07T06:02:26;98531.06;;;6.60
27826;BMP280;15077;49.704;9.908;2023-12-07T06:04:52;98534.59;;;6.51
27826;BMP280;15077;49.704;9.908;2023-12-07T06:07:17;98540.59;;;6.43
27826;BMP280;15077;49.704;9.908;2023-12-07T06:09:43;98539.09;;;6.33
27826;BMP280;15077;49.704;9.908;2023-12-07T06:12:09;98542.59;;;6.25
27826;BMP280;15077;49.704;9.908;2023-12-07T06:14:34;98536.03;;;6.16
27826;BMP280;15077;49.704;9.908;2023-12-07T06:17:00;98542.00;;;6.09
27826;BMP280;15077;49.704;9.908;2023-12-07T06:19:26;98552.19;;;6.02
27826;BMP280;15077;49.704;9.908;2023-12-07T06:21:52;98550.63;;;5.95
27826;BMP280;15077;49.704;9.908;2023-12-07T06:24:17;98553.25;;;5.87
27826;BMP280;15077;49.704;9.908;2023-12-07T06:26:43;98558.41;;;5.78
27826;BMP280;15077;49.704;9.908;2023-12-07T06:29:08;98561.03;;;5.70
27826;BMP280;15077;49.704;9.908;2023-12-07T06:31:34;98557.78;;;5.63
27826;BMP280;15077;49.704;9.908;2023-12-07T06:34:00;98569.59;;;5.58
27826;BMP280;15077;49.704;9.908;2023-12-07T06:36:26;98562.09;;;5.57
27826;BMP280;15077;49.704;9.908;2023-12-07T06:38:52;98569.66;;;5.54
27826;BMP280;15077;49.704;9.908;2023-12-07T06:41:18;98565.47;;;5.53
27826;BMP280;15077;49.704;9.908;2023-12-07T06:43:44;98566.34;;;5.49
27826;BMP280;15077;49.704;9.908;2023-12-07T06:46:13;98557.16;;;5.48
27826;BMP280;15077;49.704;9.908;2023-12-07T06:48:40;98557.16;;;5.48
27826;BMP280;15077;49.704;9.908;2023-12-07T06:51:06;98558.81;;;5.49
27826;BMP280;15077;49.704;9.908;2023-12-07T06:53:32;98560.47;;;5.51
27826;BMP280;15077;49.704;9.908;2023-12-07T06:55:57;98567.16;;;5.54
27826;BMP280;15077;49.704;9.908;2023-12-07T06:58:24;98562.13;;;5.54
27826;BMP280;15077;49.704;9.908;2023-12-07T07:00:49;98572.97;;;5.56
27826;BMP280;15077;49.704;9.908;2023-12-07T07:03:15;98573.81;;;5.55
27826;BMP280;15077;49.704;9.908;2023-12-07T07:05:42;98578.88;;;5.52
27826;BMP280;15077;49.704;9.908;2023-12-07T07:08:08;98583.91;;;5.52
27826;BMP280;15077;49.704;9.908;2023-12-07T07:10:34;98588.97;;;5.50
27826;BMP280;15077;49.704;9.908;2023-12-07T07:13:01;98593.97;;;5.52
27826;BMP280;15077;49.704;9.908;2023-12-07T07:15:33;98595.69;;;5.50
27826;BMP280;15077;49.704;9.908;2023-12-07T07:17:58;98601.50;;;5.52
27826;BMP280;15077;49.704;9.908;2023-12-07T07:20:25;98604.03;;;5.52
27826;BMP280;15077;49.704;9.908;2023-12-07T07:22:51;98611.56;;;5.53
27826;BMP280;15077;49.704;9.908;2023-12-07T07:25:17;98594.78;;;5.55
27826;BMP280;15077;49.704;9.908;2023-12-07T07:27:45;98599.78;;;5.57
27826;BMP280;15077;49.704;9.908;2023-12-07T07:30:11;98597.28;;;5.57
27826;BMP280;15077;49.704;9.908;2023-12-07T07:32:37;98601.47;;;5.56
27826;BMP280;15077;49.704;9.908;2023-12-07T07:35:03;98610.69;;;5.56
27826;BMP280;15077;49.704;9.908;2023-12-07T07:37:29;98609.03;;;5.55
27826;BMP280;15077;49.704;9.908;2023-12-07T07:39:55;98602.34;;;5.54
27826;BMP280;15077;49.704;9.908;2023-12-07T07:42:20;98600.63;;;5.56
27826;BMP280;15077;49.704;9.908;2023-12-07T07:44:46;98605.66;;;5.57
27826;BMP280;15077;49.704;9.908;2023-12-07T07:47:12;98605.63;;;5.59
27826;BMP280;15077;49.704;9.908;2023-12-07T07:49:37;98608.13;;;5.60
27826;BMP280;15077;49.704;9.908;2023-12-07T07:52:03;98610.56;;;5.65
27826;BMP280;15077;49.704;9.908;2023-12-07T07:54:30;98620.56;;;5.69
27826;BMP280;15077;49.704;9.908;2023-12-07T07:56:56;98624.75;;;5.72
27826;BMP280;15077;49.704;9.908;2023-12-07T07:59:22;98631.41;;;5.73
27826;BMP280;15077;49.704;9.908;2023-12-07T08:01:48;98628.91;;;5.74
27826;BMP280;15077;49.704;9.908;2023-12-07T08:04:18;98624.72;;;5.76
27826;BMP280;15077;49.704;9.908;2023-12-07T08:06:43;98628.84;;;5.78
27826;BMP280;15077;49.704;9.908;2023-12-07T08:09:09;98628.81;;;5.81
27826;BMP280;15077;49.704;9.908;2023-12-07T08:11:35;98627.16;;;5.82
27826;BMP280;15077;49.704;9.908;2023-12-07T08:14:00;98624.59;;;5.83
27826;BMP280;15077;49.704;9.908;2023-12-07T08:16:26;98624.59;;;5.85
27826;BMP280;15077;49.704;9.908;2023-12-07T08:18:53;98625.41;;;5.85
27826;BMP280;15077;49.704;9.908;2023-12-07T08:21:22;98628.75;;;5.84
27826;BMP280;15077;49.704;9.908;2023-12-07T08:23:48;98624.59;;;5.83
27826;BMP280;15077;49.704;9.908;2023-12-07T08:26:14;98625.44;;;5.82
27826;BMP280;15077;49.704;9.908;2023-12-07T08:28:41;98633.00;;;5.81
27826;BMP280;15077;49.704;9.908;2023-12-07T08:31:07;98629.69;;;5.79
27826;BMP280;15077;49.704;9.908;2023-12-07T08:33:32;98627.19;;;5.78
27826;BMP280;15077;49.704;9.908;2023-12-07T08:36:02;98639.75;;;5.79
27826;BMP280;15077;49.704;9.908;2023-12-07T08:38:27;98628.03;;;5.78
27826;BMP280;15077;49.704;9.908;2023-12-07T08:40:53;98633.88;;;5.78
27826;BMP280;15077;49.704;9.908;2023-12-07T08:43:22;98632.19;;;5.80
27826;BMP280;15077;49.704;9.908;2023-12-07T08:45:51;98640.53;;;5.82
27826;BMP280;15077;49.704;9.908;2023-12-07T08:48:18;98643.06;;;5.82
27826;BMP280;15077;49.704;9.908;2023-12-07T08:50:44;98644.75;;;5.82
27826;BMP280;15077;49.704;9.908;2023-12-07T08:53:09;98647.25;;;5.83
27826;BMP280;15077;49.704;9.908;2023-12-07T08:55:35;98643.00;;;5.85
27826;BMP280;15077;49.704;9.908;2023-12-07T08:58:01;98649.72;;;5.86
27826;BMP280;15077;49.704;9.908;2023-12-07T09:00:33;98639.69;;;5.85
27826;BMP280;15077;49.704;9.908;2023-12-07T09:02:59;98638.81;;;5.84
27826;BMP280;15077;49.704;9.908;2023-12-07T09:05:26;98635.47;;;5.85
27826;BMP280;15077;49.704;9.908;2023-12-07T09:07:51;98635.44;;;5.88
27826;BMP280;15077;49.704;9.908;2023-12-07T09:10:19;98633.66;;;5.93
27826;BMP280;15077;49.704;9.908;2023-12-07T09:12:44;98626.94;;;5.97
27826;BMP280;15077;49.704;9.908;2023-12-07T09:15:10;98636.13;;;5.98
27826;BMP280;15077;49.704;9.908;2023-12-07T09:17:37;98641.97;;;6.00
27826;BMP280;15077;49.704;9.908;2023-12-07T09:20:08;98644.47;;;6.01
27826;BMP280;15077;49.704;9.908;2023-12-07T09:22:39;98643.63;;;6.02
27826;BMP280;15077;49.704;9.908;2023-12-07T09:25:06;98646.13;;;6.04
27826;BMP280;15077;49.704;9.908;2023-12-07T09:27:33;98643.63;;;6.02
27826;BMP280;15077;49.704;9.908;2023-12-07T09:30:01;98633.56;;;6.02
27826;BMP280;15077;49.704;9.908;2023-12-07T09:32:27;98625.19;;;6.00
27826;BMP280;15077;49.704;9.908;2023-12-07T09:34:53;98623.47;;;6.04
27826;BMP280;15077;49.704;9.908;2023-12-07T09:37:19;98625.16;;;6.03
27826;BMP280;15077;49.704;9.908;2023-12-07T09:39:45;98618.41;;;6.05
27826;BMP280;15077;49.704;9.908;2023-12-07T09:42:11;98620.88;;;6.10
27826;BMP280;15077;49.704;9.908;2023-12-07T09:44:36;98616.63;;;6.13
27826;BMP280;15077;49.704;9.908;2023-12-07T09:47:02;98610.72;;;6.16
27826;BMP280;15077;49.704;9.908;2023-12-07T09:49:29;98609.88;;;6.14
27826;BMP280;15077;49.704;9.908;2023-12-07T09:51:56;98610.78;;;6.11
27826;BMP280;15077;49.704;9.908;2023-12-07T09:54:24;98603.22;;;6.11
27826;BMP280;15077;49.704;9.908;2023-12-07T09:56:50;98610.78;;;6.11
27826;BMP280;15077;49.704;9.908;2023-12-07T09:59:18;98612.41;;;6.14
27826;BMP280;15077;49.704;9.908;2023-12-07T10:01:44;98608.22;;;6.14
27826;BMP280;15077;49.704;9.908;2023-12-07T10:04:20;98606.53;;;6.13
27826;BMP280;15077;49.704;9.908;2023-12-07T10:06:48;98598.13;;;6.16
27826;BMP280;15077;49.704;9.908;2023-12-07T10:09:15;98593.13;;;6.14
27826;BMP280;15077;49.704;9.908;2023-12-07T10:11:41;98592.28;;;6.12
27826;BMP280;15077;49.704;9.908;2023-12-07T10:14:07;98596.47;;;6.13
27826;BMP280;15077;49.704;9.908;2023-12-07T10:16:33;98594.00;;;6.12
27826;BMP280;15077;49.704;9.908;2023-12-07T10:19:16;98590.59;;;6.14
27826;BMP280;15077;49.704;9.908;2023-12-07T10:21:51;98599.75;;;6.18
27826;BMP280;15077;49.704;9.908;2023-12-07T10:24:18;98600.56;;;6.20
27826;BMP280;15077;49.704;9.908;2023-12-07T10:26:44;98601.38;;;6.22
27826;BMP280;15077;49.704;9.908;2023-12-07T10:29:10;98600.50;;;6.25
27826;BMP280;15077;49.704;9.908;2023-12-07T10:31:39;98599.56;;;6.28
27826;BMP280;15077;49.704;9.908;2023-12-07T10:34:05;98595.41;;;6.29
27826;BMP280;15077;49.704;9.908;2023-12-07T10:36:31;98602.03;;;6.33
27826;BMP280;15077;49.704;9.908;2023-12-07T10:38:56;98601.13;;;6.37
27826;BMP280;15077;49.704;9.908;2023-12-07T10:41:24;98593.50;;;6.41
27826;BMP280;15077;49.704;9.908;2023-12-07T10:43:54;98591.75;;;6.45
27826;BMP280;15077;49.704;9.908;2023-12-07T10:46:21;98580.00;;;6.45
27826;BMP280;15077;49.704;9.908;2023-12-07T10:48:48;98568.25;;;6.46
27826;BMP280;15077;49.704;9.908;2023-12-07T10:51:45;98570.72;;;6.49
27826;BMP280;15077;49.704;9.908;2023-12-07T10:54:15;98558.06;;;6.52
27826;BMP280;15077;49.704;9.908;2023-12-07T10:56:45;98557.22;;;6.53
27826;BMP280;15077;49.704;9.908;2023-12-07T10:59:12;98558.84;;;6.57
27826;BMP280;15077;49.704;9.908;2023-12-07T11:01:42;98551.25;;;6.58
27826;BMP280;15077;49.704;9.908;2023-12-07T11:04:12;98553.75;;;6.60
27826;BMP280;15077;49.704;9.908;2023-12-07T11:06:39;98547.81;;;6.62
27826;BMP280;15077;49.704;9.908;2023-12-07T11:09:08;98541.88;;;6.65
27826;BMP280;15077;49.704;9.908;2023-12-07T11:11:47;98536.81;;;6.66
27826;BMP280;15077;49.704;9.908;2023-12-07T11:14:15;98546.06;;;6.67
27826;BMP280;15077;49.704;9.908;2023-12-07T11:16:47;98540.22;;;6.64
27826;BMP280;15077;49.704;9.908;2023-12-07T11:22:05;98538.75;;;6.54
27826;BMP280;15077;49.704;9.908;2023-12-07T11:24:31;98536.25;;;6.52
27826;BMP280;15077;49.704;9.908;2023-12-07T11:26:57;98542.09;;;6.53
27826;BMP280;15077;49.704;9.908;2023-12-07T11:29:29;98540.38;;;6.55
27826;BMP280;15077;49.704;9.908;2023-12-07T11:31:56;98532.81;;;6.56
27826;BMP280;15077;49.704;9.908;2023-12-07T11:34:39;98531.09;;;6.58
27826;BMP280;15077;49.704;9.908;2023-12-07T11:37:09;98525.19;;;6.59
27826;BMP280;15077;49.704;9.908;2023-12-07T11:39:41;98526.00;;;6.61
27826;BMP280;15077;49.704;9.908;2023-12-07T11:42:16;98513.41;;;6.63
27826;BMP280;15077;49.704;9.908;2023-12-07T11:44:43;98509.19;;;6.62
27826;BMP280;15077;49.704;9.908;2023-12-07T11:47:19;98512.59;;;6.59
27826;BMP280;15077;49.704;9.908;2023-12-07T11:49:46;98512.63;;;6.58
27826;BMP280;15077;49.704;9.908;2023-12-07T11:52:21;98507.59;;;6.58
27826;BMP280;15077;49.704;9.908;2023-12-07T11:54:48;98501.69;;;6.59
27826;BMP280;15077;49.704;9.908;2023-12-07T11:57:16;98505.00;;;6.61
27826;BMP280;15077;49.704;9.908;2023-12-07T11:59:43;98497.41;;;6.64
27826;BMP280;15077;49.704;9.908;2023-12-07T12:02:12;98483.09;;;6.66
27826;BMP280;15077;49.704;9.908;2023-12-07T12:04:38;98486.41;;;6.68
27826;BMP280;15077;49.704;9.908;2023-12-07T12:07:06;98489.72;;;6.70
27826;BMP280;15077;49.704;9.908;2023-12-07T12:09:31;98488.03;;;6.72
27826;BMP280;15077;49.704;9.908;2023-12-07T12:11:59;98480.50;;;6.70
27826;BMP280;15077;49.704;9.908;2023-12-07T12:14:26;98483.06;;;6.69
27826;BMP280;15077;49.704;9.908;2023-12-07T12:16:52;98475.47;;;6.70
27826;BMP280;15077;49.704;9.908;2023-12-07T12:19:18;98475.41;;;6.73
27826;BMP280;15077;49.704;9.908;2023-12-07T12:21:43;98473.69;;;6.75
27826;BMP280;15077;49.704;9.908;2023-12-07T12:24:10;98480.28;;;6.80
27826;BMP280;15077;49.704;9.908;2023-12-07T12:26:38;98478.41;;;6.90
27826;BMP280;15077;49.704;9.908;2023-12-07T12:29:08;98474.09;;;6.96
27826;BMP280;15077;49.704;9.908;2023-12-07T12:31:35;98466.44;;;7.01
27826;BMP280;15077;49.704;9.908;2023-12-07T12:34:07;98465.47;;;7.06
27826;BMP280;15077;49.704;9.908;2023-12-07T12:36:37;98461.22;;;7.10
27826;BMP280;15077;49.704;9.908;2023-12-07T12:39:03;98449.38;;;7.12
27826;BMP280;15077;49.704;9.908;2023-12-07T12:41:33;98435.91;;;7.14
27826;BMP280;15077;49.704;9.908;2023-12-07T12:43:59;98430.81;;;7.16
27826;BMP280;15077;49.704;9.908;2023-12-07T12:46:25;98440.00;;;7.18
27826;BMP280;15077;49.704;9.908;2023-12-07T12:48:58;98436.59;;;7.21
27826;BMP280;15077;49.704;9.908;2023-12-07T12:51:26;98434.84;;;7.22
27826;BMP280;15077;49.704;9.908;2023-12-07T12:53:55;98427.28;;;7.22
27826;BMP280;15077;49.704;9.908;2023-12-07T12:56:21;98415.56;;;7.22
27826;BMP280;15077;49.704;9.908;2023-12-07T12:58:49;98418.09;;;7.22
27826;BMP280;15077;49.704;9.908;2023-12-07T13:01:15;98411.31;;;7.23
27826;BMP280;15077;49.704;9.908;2023-12-07T13:03:46;98416.31;;;7.25
27826;BMP280;15077;49.704;9.908;2023-12-07T13:06:13;98412.06;;;7.27
27826;BMP280;15077;49.704;9.908;2023-12-07T13:08:47;98419.56;;;7.30
27826;BMP280;15077;49.704;9.908;2023-12-07T13:11:16;98427.06;;;7.31
27826;BMP280;15077;49.704;9.908;2023-12-07T13:13:42;98418.69;;;7.31
27826;BMP280;15077;49.704;9.908;2023-12-07T13:16:08;98413.63;;;7.32
27826;BMP280;15077;49.704;9.908;2023-12-07T13:18:34;98417.78;;;7.35
27826;BMP280;15077;49.704;9.908;2023-12-07T13:20:59;98411.88;;;7.34
27826;BMP280;15077;49.704;9.908;2023-12-07T13:23:25;98405.16;;;7.35
27826;BMP280;15077;49.704;9.908;2023-12-07T13:25:51;98402.66;;;7.35
27826;BMP280;15077;49.704;9.908;2023-12-07T13:28:17;98402.66;;;7.35
27826;BMP280;15077;49.704;9.908;2023-12-07T13:30:44;98402.66;;;7.35
27826;BMP280;15077;49.704;9.908;2023-12-07T13:33:09;98401.78;;;7.34
27826;BMP280;15077;49.704;9.908;2023-12-07T13:35:35;98392.56;;;7.35
27826;BMP280;15077;49.704;9.908;2023-12-07T13:38:01;98387.56;;;7.33
27826;BMP280;15077;49.704;9.908;2023-12-07T13:40:26;98393.41;;;7.34
27826;BMP280;15077;49.704;9.908;2023-12-07T13:42:52;98386.66;;;7.34
27826;BMP280;15077;49.704;9.908;2023-12-07T13:45:18;98387.50;;;7.35
27826;BMP280;15077;49.704;9.908;2023-12-07T13:47:45;98380.81;;;7.34
27826;BMP280;15077;49.704;9.908;2023-12-07T13:50:11;98380.81;;;7.34
27826;BMP280;15077;49.704;9.908;2023-12-07T13:52:38;98392.56;;;7.35
27826;BMP280;15077;49.704;9.908;2023-12-07T13:55:04;98384.97;;;7.36
27826;BMP280;15077;49.704;9.908;2023-12-07T13:57:30;98383.22;;;7.38
27826;BMP280;15077;49.704;9.908;2023-12-07T13:59:56;98382.31;;;7.41
27826;BMP280;15077;49.704;9.908;2023-12-07T14:02:22;98385.59;;;7.44
27826;BMP280;15077;49.704;9.908;2023-12-07T14:04:49;98383.06;;;7.44
27826;BMP280;15077;49.704;9.908;2023-12-07T14:07:19;98380.50;;;7.46
27826;BMP280;15077;49.704;9.908;2023-12-07T14:09:50;98376.28;;;7.48
27826;BMP280;15077;49.704;9.908;2023-12-07T14:12:16;98382.09;;;7.50
27826;BMP280;15077;49.704;9.908;2023-12-07T14:14:47;98382.03;;;7.53
27826;BMP280;15077;49.704;9.908;2023-12-07T14:17:16;98381.19;;;7.54
27826;BMP280;15077;49.704;9.908;2023-12-07T14:19:42;98377.72;;;7.56
27826;BMP280;15077;49.704;9.908;2023-12-07T14:22:08;98381.88;;;7.59
27826;BMP280;15077;49.704;9.908;2023-12-07T14:24:37;98376.81;;;7.60